sensor_id;sensor_type;location;lat;lon;timestamp;P1;durP1;ratioP1;P2;durP2;ratioP2
8652;SDS011;4364;52.426;9.424;2023-08-20T00:01:59;11.93;;;10.10;;
8652;SDS011;4364;52.426;9.424;2023-08-20T00:04:28;12.73;;;8.70;;
8652;SDS011;4364;52.426;9.424;2023-08-20T00:06:57;9.17;;;7.70;;
8652;SDS011;4364;52.426;9.424;2023-08-20T00:09:23;11.97;;;6.93;;
8652;SDS011;4364;52.426;9.424;2023-08-20T00:11:52;9.00;;;6.07;;
8652;SDS011;4364;52.426;9.424;2023-08-20T00:14:19;9.97;;;6.00;;
8652;SDS011;4364;52.426;9.424;2023-08-20T00:16:45;8.03;;;5.37;;
8652;SDS011;4364;52.426;9.424;2023-08-20T00:19:12;8.07;;;5.40;;
8652;SDS011;4364;52.426;9.424;2023-08-20T00:21:43;7.60;;;5.27;;
8652;SDS011;4364;52.426;9.424;2023-08-20T00:24:11;7.43;;;4.97;;
8652;SDS011;4364;52.426;9.424;2023-08-20T00:26:38;8.43;;;4.90;;
8652;SDS011;4364;52.426;9.424;2023-08-20T00:29:05;6.97;;;4.47;;
8652;SDS011;4364;52.426;9.424;2023-08-20T00:31:34;7.47;;;4.40;;
8652;SDS011;4364;52.426;9.424;2023-08-20T00:34:01;6.07;;;3.97;;
8652;SDS011;4364;52.426;9.424;2023-08-20T00:36:33;6.37;;;3.77;;
8652;SDS011;4364;52.426;9.424;2023-08-20T00:38:59;6.70;;;4.07;;
8652;SDS011;4364;52.426;9.424;2023-08-20T00:41:25;7.40;;;4.07;;
8652;SDS011;4364;52.426;9.424;2023-08-20T00:43:52;5.93;;;3.37;;
8652;SDS011;4364;52.426;9.424;2023-08-20T00:46:18;5.63;;;3.50;;
8652;SDS011;4364;52.426;9.424;2023-08-20T00:48:45;7.33;;;3.57;;
8652;SDS011;4364;52.426;9.424;2023-08-20T00:51:12;5.23;;;3.53;;
8652;SDS011;4364;52.426;9.424;2023-08-20T00:53:38;5.17;;;3.20;;
8652;SDS011;4364;52.426;9.424;2023-08-20T00:56:05;7.87;;;3.37;;
8652;SDS011;4364;52.426;9.424;2023-08-20T00:58:32;6.57;;;3.30;;
8652;SDS011;4364;52.426;9.424;2023-08-20T01:00:59;6.43;;;3.50;;
8652;SDS011;4364;52.426;9.424;2023-08-20T01:03:26;6.03;;;2.90;;
8652;SDS011;4364;52.426;9.424;2023-08-20T01:05:53;4.60;;;3.10;;
8652;SDS011;4364;52.426;9.424;2023-08-20T01:08:37;4.83;;;2.90;;
8652;SDS011;4364;52.426;9.424;2023-08-20T01:11:21;4.20;;;2.67;;
8652;SDS011;4364;52.426;9.424;2023-08-20T01:13:56;5.53;;;3.30;;
8652;SDS011;4364;52.426;9.424;2023-08-20T01:16:25;4.80;;;3.00;;
8652;SDS011;4364;52.426;9.424;2023-08-20T01:18:52;8.67;;;3.37;;
8652;SDS011;4364;52.426;9.424;2023-08-20T01:21:24;5.33;;;3.40;;
8652;SDS011;4364;52.426;9.424;2023-08-20T01:24:16;7.57;;;3.70;;
8652;SDS011;4364;52.426;9.424;2023-08-20T01:27:03;8.17;;;3.80;;
8652;SDS011;4364;52.426;9.424;2023-08-20T01:29:45;5.20;;;3.07;;
8652;SDS011;4364;52.426;9.424;2023-08-20T01:32:12;6.60;;;3.47;;
8652;SDS011;4364;52.426;9.424;2023-08-20T01:34:39;7.10;;;3.33;;
8652;SDS011;4364;52.426;9.424;2023-08-20T01:37:06;7.43;;;3.73;;
8652;SDS011;4364;52.426;9.424;2023-08-20T01:39:34;5.03;;;3.47;;
8652;SDS011;4364;52.426;9.424;2023-08-20T01:42:01;5.43;;;3.00;;
8652;SDS011;4364;52.426;9.424;2023-08-20T01:44:27;5.00;;;3.13;;
8652;SDS011;4364;52.426;9.424;2023-08-20T01:46:54;6.70;;;3.47;;
8652;SDS011;4364;52.426;9.424;2023-08-20T01:49:20;4.50;;;2.90;;
8652;SDS011;4364;52.426;9.424;2023-08-20T01:51:46;5.53;;;3.50;;
8652;SDS011;4364;52.426;9.424;2023-08-20T01:54:13;4.30;;;3.30;;
8652;SDS011;4364;52.426;9.424;2023-08-20T01:56:40;3.83;;;3.13;;
8652;SDS011;4364;52.426;9.424;2023-08-20T01:59:07;7.03;;;3.57;;
8652;SDS011;4364;52.426;9.424;2023-08-20T02:01:33;6.73;;;3.60;;
8652;SDS011;4364;52.426;9.424;2023-08-20T02:04:00;5.03;;;3.30;;
8652;SDS011;4364;52.426;9.424;2023-08-20T02:06:27;6.17;;;3.73;;
8652;SDS011;4364;52.426;9.424;2023-08-20T02:08:53;6.50;;;4.03;;
8652;SDS011;4364;52.426;9.424;2023-08-20T02:11:22;5.50;;;3.87;;
8652;SDS011;4364;52.426;9.424;2023-08-20T02:13:48;6.10;;;4.43;;
8652;SDS011;4364;52.426;9.424;2023-08-20T02:16:15;7.87;;;4.60;;
8652;SDS011;4364;52.426;9.424;2023-08-20T02:18:43;7.53;;;4.30;;
8652;SDS011;4364;52.426;9.424;2023-08-20T02:21:10;7.27;;;4.87;;
8652;SDS011;4364;52.426;9.424;2023-08-20T02:23:36;7.37;;;4.33;;
8652;SDS011;4364;52.426;9.424;2023-08-20T02:26:05;6.10;;;4.10;;
8652;SDS011;4364;52.426;9.424;2023-08-20T02:28:33;9.00;;;5.07;;
8652;SDS011;4364;52.426;9.424;2023-08-20T02:31:03;7.40;;;4.63;;
8652;SDS011;4364;52.426;9.424;2023-08-20T02:33:30;7.13;;;4.93;;
8652;SDS011;4364;52.426;9.424;2023-08-20T02:36:03;8.13;;;4.70;;
8652;SDS011;4364;52.426;9.424;2023-08-20T02:38:30;7.37;;;4.80;;
8652;SDS011;4364;52.426;9.424;2023-08-20T02:40:57;10.40;;;4.97;;
8652;SDS011;4364;52.426;9.424;2023-08-20T02:43:23;5.40;;;4.40;;
8652;SDS011;4364;52.426;9.424;2023-08-20T02:45:50;7.40;;;4.90;;
8652;SDS011;4364;52.426;9.424;2023-08-20T02:48:17;7.80;;;4.83;;
8652;SDS011;4364;52.426;9.424;2023-08-20T02:50:44;8.80;;;5.13;;
8652;SDS011;4364;52.426;9.424;2023-08-20T02:53:11;9.07;;;4.97;;
8652;SDS011;4364;52.426;9.424;2023-08-20T02:55:37;7.67;;;4.73;;
8652;SDS011;4364;52.426;9.424;2023-08-20T02:58:04;5.40;;;4.40;;
8652;SDS011;4364;52.426;9.424;2023-08-20T03:00:34;8.70;;;5.10;;
8652;SDS011;4364;52.426;9.424;2023-08-20T03:03:01;7.37;;;4.73;;
8652;SDS011;4364;52.426;9.424;2023-08-20T03:05:30;7.57;;;4.87;;
8652;SDS011;4364;52.426;9.424;2023-08-20T03:07:56;6.67;;;4.43;;
8652;SDS011;4364;52.426;9.424;2023-08-20T03:10:23;6.43;;;5.07;;
8652;SDS011;4364;52.426;9.424;2023-08-20T03:12:50;7.50;;;5.00;;
8652;SDS011;4364;52.426;9.424;2023-08-20T03:15:16;7.00;;;5.13;;
8652;SDS011;4364;52.426;9.424;2023-08-20T03:17:43;8.73;;;4.90;;
8652;SDS011;4364;52.426;9.424;2023-08-20T03:20:10;7.60;;;4.93;;
8652;SDS011;4364;52.426;9.424;2023-08-20T03:22:37;6.27;;;4.83;;
8652;SDS011;4364;52.426;9.424;2023-08-20T03:25:04;8.73;;;5.20;;
8652;SDS011;4364;52.426;9.424;2023-08-20T03:27:32;7.43;;;4.77;;
8652;SDS011;4364;52.426;9.424;2023-08-20T03:29:59;7.43;;;5.53;;
8652;SDS011;4364;52.426;9.424;2023-08-20T03:32:26;7.60;;;4.93;;
8652;SDS011;4364;52.426;9.424;2023-08-20T03:34:53;6.70;;;5.23;;
8652;SDS011;4364;52.426;9.424;2023-08-20T03:37:21;8.77;;;4.73;;
8652;SDS011;4364;52.426;9.424;2023-08-20T03:39:48;6.30;;;4.53;;
8652;SDS011;4364;52.426;9.424;2023-08-20T03:42:15;7.13;;;5.20;;
8652;SDS011;4364;52.426;9.424;2023-08-20T03:44:41;8.37;;;5.40;;
8652;SDS011;4364;52.426;9.424;2023-08-20T03:47:08;9.40;;;5.57;;
8652;SDS011;4364;52.426;9.424;2023-08-20T03:49:35;10.50;;;5.10;;
8652;SDS011;4364;52.426;9.424;2023-08-20T03:52:02;7.23;;;4.97;;
8652;SDS011;4364;52.426;9.424;2023-08-20T03:54:29;6.27;;;5.23;;
8652;SDS011;4364;52.426;9.424;2023-08-20T03:56:55;7.30;;;5.13;;
8652;SDS011;4364;52.426;9.424;2023-08-20T03:59:22;6.70;;;4.83;;
8652;SDS011;4364;52.426;9.424;2023-08-20T04:01:50;10.03;;;5.13;;
8652;SDS011;4364;52.426;9.424;2023-08-20T04:04:16;6.97;;;4.53;;
8652;SDS011;4364;52.426;9.424;2023-08-20T04:06:43;6.40;;;4.57;;
8652;SDS011;4364;52.426;9.424;2023-08-20T04:09:10;6.93;;;4.70;;
8652;SDS011;4364;52.426;9.424;2023-08-20T04:11:38;11.60;;;5.20;;
8652;SDS011;4364;52.426;9.424;2023-08-20T04:14:05;6.47;;;4.87;;
8652;SDS011;4364;52.426;9.424;2023-08-20T04:16:31;6.27;;;4.50;;
8652;SDS011;4364;52.426;9.424;2023-08-20T04:18:58;7.43;;;5.10;;
8652;SDS011;4364;52.426;9.424;2023-08-20T04:21:24;7.53;;;5.37;;
8652;SDS011;4364;52.426;9.424;2023-08-20T04:23:50;6.70;;;5.00;;
8652;SDS011;4364;52.426;9.424;2023-08-20T04:26:17;7.33;;;5.40;;
8652;SDS011;4364;52.426;9.424;2023-08-20T04:28:44;7.67;;;5.40;;
8652;SDS011;4364;52.426;9.424;2023-08-20T04:31:11;5.90;;;5.17;;
8652;SDS011;4364;52.426;9.424;2023-08-20T04:33:48;7.80;;;5.27;;
8652;SDS011;4364;52.426;9.424;2023-08-20T04:36:18;7.10;;;5.10;;
8652;SDS011;4364;52.426;9.424;2023-08-20T04:38:45;5.93;;;4.63;;
8652;SDS011;4364;52.426;9.424;2023-08-20T04:41:12;7.63;;;4.70;;
8652;SDS011;4364;52.426;9.424;2023-08-20T04:43:38;7.70;;;5.27;;
8652;SDS011;4364;52.426;9.424;2023-08-20T04:46:05;6.57;;;4.90;;
8652;SDS011;4364;52.426;9.424;2023-08-20T04:48:31;6.93;;;5.13;;
8652;SDS011;4364;52.426;9.424;2023-08-20T04:50:59;7.30;;;5.10;;
8652;SDS011;4364;52.426;9.424;2023-08-20T04:53:27;6.93;;;5.07;;
8652;SDS011;4364;52.426;9.424;2023-08-20T04:55:53;8.00;;;5.30;;
8652;SDS011;4364;52.426;9.424;2023-08-20T04:58:21;6.13;;;4.73;;
8652;SDS011;4364;52.426;9.424;2023-08-20T05:00:47;7.23;;;5.23;;
8652;SDS011;4364;52.426;9.424;2023-08-20T05:03:14;10.83;;;5.40;;
8652;SDS011;4364;52.426;9.424;2023-08-20T05:05:41;10.43;;;5.40;;
8652;SDS011;4364;52.426;9.424;2023-08-20T05:08:08;7.90;;;5.87;;
8652;SDS011;4364;52.426;9.424;2023-08-20T05:10:36;10.57;;;5.80;;
8652;SDS011;4364;52.426;9.424;2023-08-20T05:13:03;8.13;;;5.77;;
8652;SDS011;4364;52.426;9.424;2023-08-20T05:15:30;9.10;;;5.33;;
8652;SDS011;4364;52.426;9.424;2023-08-20T05:17:57;11.90;;;6.07;;
8652;SDS011;4364;52.426;9.424;2023-08-20T05:20:23;7.63;;;5.20;;
8652;SDS011;4364;52.426;9.424;2023-08-20T05:22:50;7.77;;;5.50;;
8652;SDS011;4364;52.426;9.424;2023-08-20T05:25:16;9.13;;;5.67;;
8652;SDS011;4364;52.426;9.424;2023-08-20T05:27:43;9.60;;;5.27;;
8652;SDS011;4364;52.426;9.424;2023-08-20T05:30:10;10.40;;;5.60;;
8652;SDS011;4364;52.426;9.424;2023-08-20T05:32:37;7.53;;;5.60;;
8652;SDS011;4364;52.426;9.424;2023-08-20T05:35:04;7.17;;;5.30;;
8652;SDS011;4364;52.426;9.424;2023-08-20T05:37:32;7.57;;;5.43;;
8652;SDS011;4364;52.426;9.424;2023-08-20T05:39:58;6.03;;;5.40;;
8652;SDS011;4364;52.426;9.424;2023-08-20T05:42:25;7.10;;;4.93;;
8652;SDS011;4364;52.426;9.424;2023-08-20T05:44:59;7.60;;;4.97;;
8652;SDS011;4364;52.426;9.424;2023-08-20T05:47:27;9.63;;;5.17;;
8652;SDS011;4364;52.426;9.424;2023-08-20T05:49:54;11.50;;;5.23;;
8652;SDS011;4364;52.426;9.424;2023-08-20T05:52:20;5.93;;;4.40;;
8652;SDS011;4364;52.426;9.424;2023-08-20T05:54:47;9.40;;;4.97;;
8652;SDS011;4364;52.426;9.424;2023-08-20T05:57:14;9.27;;;5.00;;
8652;SDS011;4364;52.426;9.424;2023-08-20T05:59:41;6.70;;;4.93;;
8652;SDS011;4364;52.426;9.424;2023-08-20T06:02:08;6.77;;;4.53;;
8652;SDS011;4364;52.426;9.424;2023-08-20T06:04:34;5.60;;;4.13;;
8652;SDS011;4364;52.426;9.424;2023-08-20T06:07:01;8.30;;;4.30;;
8652;SDS011;4364;52.426;9.424;2023-08-20T06:09:27;5.67;;;3.70;;
8652;SDS011;4364;52.426;9.424;2023-08-20T06:11:54;5.70;;;3.77;;
8652;SDS011;4364;52.426;9.424;2023-08-20T06:14:20;6.13;;;3.67;;
8652;SDS011;4364;52.426;9.424;2023-08-20T06:16:47;7.13;;;4.20;;
8652;SDS011;4364;52.426;9.424;2023-08-20T06:19:13;6.43;;;3.70;;
8652;SDS011;4364;52.426;9.424;2023-08-20T06:21:41;6.47;;;3.17;;
8652;SDS011;4364;52.426;9.424;2023-08-20T06:24:07;8.13;;;3.47;;
8652;SDS011;4364;52.426;9.424;2023-08-20T06:26:35;6.73;;;3.30;;
8652;SDS011;4364;52.426;9.424;2023-08-20T06:29:01;6.37;;;3.10;;
8652;SDS011;4364;52.426;9.424;2023-08-20T06:31:28;5.83;;;3.10;;
8652;SDS011;4364;52.426;9.424;2023-08-20T06:33:54;7.33;;;3.10;;
8652;SDS011;4364;52.426;9.424;2023-08-20T06:36:21;5.07;;;3.00;;
8652;SDS011;4364;52.426;9.424;2023-08-20T06:38:47;4.27;;;2.47;;
8652;SDS011;4364;52.426;9.424;2023-08-20T06:41:14;5.60;;;3.10;;
8652;SDS011;4364;52.426;9.424;2023-08-20T06:43:41;5.37;;;2.90;;
8652;SDS011;4364;52.426;9.424;2023-08-20T06:46:08;4.57;;;2.60;;
8652;SDS011;4364;52.426;9.424;2023-08-20T06:48:35;7.40;;;2.70;;
8652;SDS011;4364;52.426;9.424;2023-08-20T06:51:11;5.17;;;2.50;;
8652;SDS011;4364;52.426;9.424;2023-08-20T06:53:39;5.23;;;2.50;;
8652;SDS011;4364;52.426;9.424;2023-08-20T06:56:10;4.73;;;2.50;;
8652;SDS011;4364;52.426;9.424;2023-08-20T06:58:38;4.70;;;2.50;;
8652;SDS011;4364;52.426;9.424;2023-08-20T07:01:05;4.80;;;2.60;;
8652;SDS011;4364;52.426;9.424;2023-08-20T07:03:39;4.23;;;2.50;;
8652;SDS011;4364;52.426;9.424;2023-08-20T07:06:06;7.50;;;2.60;;
8652;SDS011;4364;52.426;9.424;2023-08-20T07:08:33;5.70;;;2.60;;
8652;SDS011;4364;52.426;9.424;2023-08-20T07:10:59;6.63;;;2.47;;
8652;SDS011;4364;52.426;9.424;2023-08-20T07:13:27;6.33;;;2.63;;
8652;SDS011;4364;52.426;9.424;2023-08-20T07:15:54;5.07;;;2.50;;
8652;SDS011;4364;52.426;9.424;2023-08-20T07:18:21;8.60;;;2.70;;
8652;SDS011;4364;52.426;9.424;2023-08-20T07:20:48;5.03;;;2.53;;
8652;SDS011;4364;52.426;9.424;2023-08-20T07:23:15;6.73;;;2.57;;
8652;SDS011;4364;52.426;9.424;2023-08-20T07:25:42;5.37;;;2.40;;
8652;SDS011;4364;52.426;9.424;2023-08-20T07:28:11;6.37;;;2.80;;
8652;SDS011;4364;52.426;9.424;2023-08-20T07:30:39;5.80;;;2.77;;
8652;SDS011;4364;52.426;9.424;2023-08-20T07:33:06;5.67;;;2.93;;
8652;SDS011;4364;52.426;9.424;2023-08-20T07:35:33;7.20;;;2.87;;
8652;SDS011;4364;52.426;9.424;2023-08-20T07:38:01;6.17;;;2.90;;
8652;SDS011;4364;52.426;9.424;2023-08-20T07:40:28;5.87;;;2.70;;
8652;SDS011;4364;52.426;9.424;2023-08-20T07:42:54;6.93;;;3.20;;
8652;SDS011;4364;52.426;9.424;2023-08-20T07:45:22;5.47;;;2.70;;
8652;SDS011;4364;52.426;9.424;2023-08-20T07:47:48;5.03;;;2.70;;
8652;SDS011;4364;52.426;9.424;2023-08-20T07:50:15;10.40;;;3.23;;
8652;SDS011;4364;52.426;9.424;2023-08-20T07:52:43;6.93;;;3.30;;
8652;SDS011;4364;52.426;9.424;2023-08-20T07:55:09;7.33;;;2.70;;
8652;SDS011;4364;52.426;9.424;2023-08-20T07:57:36;4.07;;;2.57;;
8652;SDS011;4364;52.426;9.424;2023-08-20T08:00:03;6.90;;;2.93;;
8652;SDS011;4364;52.426;9.424;2023-08-20T08:02:36;5.67;;;2.90;;
8652;SDS011;4364;52.426;9.424;2023-08-20T08:05:03;5.23;;;3.07;;
8652;SDS011;4364;52.426;9.424;2023-08-20T08:07:29;5.47;;;3.73;;
8652;SDS011;4364;52.426;9.424;2023-08-20T08:09:56;7.33;;;3.63;;
8652;SDS011;4364;52.426;9.424;2023-08-20T08:12:22;6.13;;;3.47;;
8652;SDS011;4364;52.426;9.424;2023-08-20T08:14:49;8.60;;;3.70;;
8652;SDS011;4364;52.426;9.424;2023-08-20T08:17:15;7.67;;;4.10;;
8652;SDS011;4364;52.426;9.424;2023-08-20T08:19:42;6.97;;;4.00;;
8652;SDS011;4364;52.426;9.424;2023-08-20T08:22:09;4.40;;;3.37;;
8652;SDS011;4364;52.426;9.424;2023-08-20T08:24:35;5.03;;;3.70;;
8652;SDS011;4364;52.426;9.424;2023-08-20T08:27:02;8.80;;;4.27;;
8652;SDS011;4364;52.426;9.424;2023-08-20T08:29:28;6.97;;;3.80;;
8652;SDS011;4364;52.426;9.424;2023-08-20T08:31:55;6.07;;;3.70;;
8652;SDS011;4364;52.426;9.424;2023-08-20T08:34:21;4.20;;;3.40;;
8652;SDS011;4364;52.426;9.424;2023-08-20T08:36:48;6.27;;;3.23;;
8652;SDS011;4364;52.426;9.424;2023-08-20T08:39:14;6.83;;;3.20;;
8652;SDS011;4364;52.426;9.424;2023-08-20T08:41:41;4.67;;;3.23;;
8652;SDS011;4364;52.426;9.424;2023-08-20T08:44:09;4.70;;;3.00;;
8652;SDS011;4364;52.426;9.424;2023-08-20T08:46:37;4.63;;;3.10;;
8652;SDS011;4364;52.426;9.424;2023-08-20T08:49:05;4.30;;;2.55;;
8652;SDS011;4364;52.426;9.424;2023-08-20T08:51:31;4.95;;;3.17;;
8652;SDS011;4364;52.426;9.424;2023-08-20T08:54:01;4.53;;;3.28;;
8652;SDS011;4364;52.426;9.424;2023-08-20T08:56:29;5.68;;;3.30;;
8652;SDS011;4364;52.426;9.424;2023-08-20T08:58:55;3.80;;;2.97;;
8652;SDS011;4364;52.426;9.424;2023-08-20T09:01:22;6.03;;;3.30;;
8652;SDS011;4364;52.426;9.424;2023-08-20T09:03:48;4.45;;;3.50;;
8652;SDS011;4364;52.426;9.424;2023-08-20T09:06:15;5.47;;;3.50;;
8652;SDS011;4364;52.426;9.424;2023-08-20T09:08:42;7.88;;;3.58;;
8652;SDS011;4364;52.426;9.424;2023-08-20T09:11:09;6.00;;;3.30;;
8652;SDS011;4364;52.426;9.424;2023-08-20T09:13:36;3.80;;;2.83;;
8652;SDS011;4364;52.426;9.424;2023-08-20T09:16:04;5.00;;;3.28;;
8652;SDS011;4364;52.426;9.424;2023-08-20T09:18:38;4.40;;;3.30;;
8652;SDS011;4364;52.426;9.424;2023-08-20T09:21:07;5.85;;;3.40;;
8652;SDS011;4364;52.426;9.424;2023-08-20T09:23:37;4.30;;;2.90;;
8652;SDS011;4364;52.426;9.424;2023-08-20T09:26:04;5.75;;;3.25;;
8652;SDS011;4364;52.426;9.424;2023-08-20T09:28:42;5.50;;;3.50;;
8652;SDS011;4364;52.426;9.424;2023-08-20T09:31:12;5.13;;;3.80;;
8652;SDS011;4364;52.426;9.424;2023-08-20T09:33:48;5.47;;;4.05;;
8652;SDS011;4364;52.426;9.424;2023-08-20T09:36:18;6.10;;;4.30;;
8652;SDS011;4364;52.426;9.424;2023-08-20T09:38:45;5.60;;;4.18;;
8652;SDS011;4364;52.426;9.424;2023-08-20T09:41:15;5.28;;;4.70;;
8652;SDS011;4364;52.426;9.424;2023-08-20T09:43:43;5.05;;;3.60;;
8652;SDS011;4364;52.426;9.424;2023-08-20T09:46:12;6.45;;;4.18;;
8652;SDS011;4364;52.426;9.424;2023-08-20T09:48:40;6.57;;;3.38;;
8652;SDS011;4364;52.426;9.424;2023-08-20T09:51:11;7.20;;;3.50;;
8652;SDS011;4364;52.426;9.424;2023-08-20T09:53:48;5.75;;;4.03;;
8652;SDS011;4364;52.426;9.424;2023-08-20T09:56:32;4.20;;;3.53;;
8652;SDS011;4364;52.426;9.424;2023-08-20T09:59:05;4.60;;;3.50;;
8652;SDS011;4364;52.426;9.424;2023-08-20T10:01:32;5.38;;;3.92;;
8652;SDS011;4364;52.426;9.424;2023-08-20T10:03:59;5.13;;;3.53;;
8652;SDS011;4364;52.426;9.424;2023-08-20T10:06:26;4.03;;;3.28;;
8652;SDS011;4364;52.426;9.424;2023-08-20T10:08:55;9.55;;;3.90;;
8652;SDS011;4364;52.426;9.424;2023-08-20T10:11:22;5.05;;;3.22;;
8652;SDS011;4364;52.426;9.424;2023-08-20T10:13:49;4.10;;;3.67;;
8652;SDS011;4364;52.426;9.424;2023-08-20T10:16:18;4.68;;;3.30;;
8652;SDS011;4364;52.426;9.424;2023-08-20T10:18:48;5.70;;;3.47;;
8652;SDS011;4364;52.426;9.424;2023-08-20T10:21:14;7.20;;;3.17;;
8652;SDS011;4364;52.426;9.424;2023-08-20T10:23:41;3.47;;;3.13;;
8652;SDS011;4364;52.426;9.424;2023-08-20T10:26:11;4.45;;;3.30;;
8652;SDS011;4364;52.426;9.424;2023-08-20T10:28:40;5.60;;;3.58;;
8652;SDS011;4364;52.426;9.424;2023-08-20T10:31:10;5.15;;;3.80;;
8652;SDS011;4364;52.426;9.424;2023-08-20T10:33:49;3.72;;;3.38;;
8652;SDS011;4364;52.426;9.424;2023-08-20T10:36:17;5.22;;;3.70;;
8652;SDS011;4364;52.426;9.424;2023-08-20T10:38:49;4.90;;;3.55;;
8652;SDS011;4364;52.426;9.424;2023-08-20T10:41:16;5.47;;;3.88;;
8652;SDS011;4364;52.426;9.424;2023-08-20T10:43:51;4.75;;;3.85;;
8652;SDS011;4364;52.426;9.424;2023-08-20T10:46:19;5.47;;;4.10;;
8652;SDS011;4364;52.426;9.424;2023-08-20T10:48:57;4.82;;;4.03;;
8652;SDS011;4364;52.426;9.424;2023-08-20T10:59:23;5.82;;;3.75;;
8652;SDS011;4364;52.426;9.424;2023-08-20T11:01:52;3.78;;;3.45;;
8652;SDS011;4364;52.426;9.424;2023-08-20T11:04:21;3.75;;;3.45;;
8652;SDS011;4364;52.426;9.424;2023-08-20T11:06:49;4.82;;;3.70;;
8652;SDS011;4364;52.426;9.424;2023-08-20T11:09:18;4.57;;;3.30;;
8652;SDS011;4364;52.426;9.424;2023-08-20T11:11:45;5.15;;;3.50;;
8652;SDS011;4364;52.426;9.424;2023-08-20T11:14:13;5.05;;;3.88;;
8652;SDS011;4364;52.426;9.424;2023-08-20T11:16:41;6.25;;;3.90;;
8652;SDS011;4364;52.426;9.424;2023-08-20T11:19:10;5.18;;;3.65;;
8652;SDS011;4364;52.426;9.424;2023-08-20T11:21:37;4.30;;;3.90;;
8652;SDS011;4364;52.426;9.424;2023-08-20T11:24:06;6.15;;;3.92;;
8652;SDS011;4364;52.426;9.424;2023-08-20T11:26:34;5.57;;;3.70;;
8652;SDS011;4364;52.426;9.424;2023-08-20T11:29:08;4.75;;;3.70;;
8652;SDS011;4364;52.426;9.424;2023-08-20T11:31:36;5.30;;;3.90;;
8652;SDS011;4364;52.426;9.424;2023-08-20T11:34:04;5.32;;;4.25;;
8652;SDS011;4364;52.426;9.424;2023-08-20T11:36:31;4.00;;;3.60;;
8652;SDS011;4364;52.426;9.424;2023-08-20T11:38:58;6.03;;;4.20;;
8652;SDS011;4364;52.426;9.424;2023-08-20T11:41:25;4.40;;;4.00;;
8652;SDS011;4364;52.426;9.424;2023-08-20T11:43:52;4.20;;;3.55;;
8652;SDS011;4364;52.426;9.424;2023-08-20T11:46:20;4.72;;;3.67;;
8652;SDS011;4364;52.426;9.424;2023-08-20T11:54:16;3.50;;;3.20;;
8652;SDS011;4364;52.426;9.424;2023-08-20T11:56:44;3.92;;;3.53;;
8652;SDS011;4364;52.426;9.424;2023-08-20T11:59:16;3.97;;;3.55;;
8652;SDS011;4364;52.426;9.424;2023-08-20T12:01:59;6.65;;;3.85;;
8652;SDS011;4364;52.426;9.424;2023-08-20T12:04:28;4.65;;;3.70;;
8652;SDS011;4364;52.426;9.424;2023-08-20T12:07:05;3.63;;;3.33;;
8652;SDS011;4364;52.426;9.424;2023-08-20T12:09:32;5.30;;;3.72;;
8652;SDS011;4364;52.426;9.424;2023-08-20T12:11:59;4.25;;;3.70;;
8652;SDS011;4364;52.426;9.424;2023-08-20T12:14:28;6.53;;;3.72;;
8652;SDS011;4364;52.426;9.424;2023-08-20T12:16:54;4.53;;;3.60;;
8652;SDS011;4364;52.426;9.424;2023-08-20T12:19:21;4.70;;;3.55;;
8652;SDS011;4364;52.426;9.424;2023-08-20T12:21:49;5.35;;;3.83;;
8652;SDS011;4364;52.426;9.424;2023-08-20T12:24:16;5.15;;;4.10;;
8652;SDS011;4364;52.426;9.424;2023-08-20T12:26:43;4.07;;;3.50;;
8652;SDS011;4364;52.426;9.424;2023-08-20T12:29:09;5.75;;;4.03;;
8652;SDS011;4364;52.426;9.424;2023-08-20T12:31:36;4.95;;;3.95;;
8652;SDS011;4364;52.426;9.424;2023-08-20T12:34:02;6.47;;;4.10;;
8652;SDS011;4364;52.426;9.424;2023-08-20T12:36:29;6.05;;;4.07;;
8652;SDS011;4364;52.426;9.424;2023-08-20T12:38:56;4.60;;;3.90;;
8652;SDS011;4364;52.426;9.424;2023-08-20T12:41:22;5.55;;;4.07;;
8652;SDS011;4364;52.426;9.424;2023-08-20T12:43:49;7.28;;;3.70;;
8652;SDS011;4364;52.426;9.424;2023-08-20T12:46:16;4.82;;;4.00;;
8652;SDS011;4364;52.426;9.424;2023-08-20T12:48:43;4.47;;;3.88;;
8652;SDS011;4364;52.426;9.424;2023-08-20T12:51:10;4.80;;;3.70;;
8652;SDS011;4364;52.426;9.424;2023-08-20T12:53:40;4.38;;;3.70;;
8652;SDS011;4364;52.426;9.424;2023-08-20T12:56:07;3.97;;;3.65;;
8652;SDS011;4364;52.426;9.424;2023-08-20T12:58:33;5.88;;;4.03;;
8652;SDS011;4364;52.426;9.424;2023-08-20T13:01:00;5.25;;;4.07;;
8652;SDS011;4364;52.426;9.424;2023-08-20T13:03:27;5.40;;;3.90;;
8652;SDS011;4364;52.426;9.424;2023-08-20T13:05:55;5.47;;;4.00;;
8652;SDS011;4364;52.426;9.424;2023-08-20T13:08:24;5.32;;;4.07;;
8652;SDS011;4364;52.426;9.424;2023-08-20T13:10:55;5.78;;;3.67;;
8652;SDS011;4364;52.426;9.424;2023-08-20T13:13:23;4.45;;;3.60;;
8652;SDS011;4364;52.426;9.424;2023-08-20T13:15:50;4.28;;;3.85;;
8652;SDS011;4364;52.426;9.424;2023-08-20T13:18:18;6.00;;;3.90;;
8652;SDS011;4364;52.426;9.424;2023-08-20T13:20:45;5.28;;;3.65;;
8652;SDS011;4364;52.426;9.424;2023-08-20T13:23:12;4.95;;;3.80;;
8652;SDS011;4364;52.426;9.424;2023-08-20T13:25:39;5.40;;;3.72;;
8652;SDS011;4364;52.426;9.424;2023-08-20T13:28:05;4.78;;;4.03;;
8652;SDS011;4364;52.426;9.424;2023-08-20T13:30:32;4.25;;;3.85;;
8652;SDS011;4364;52.426;9.424;2023-08-20T13:32:59;4.25;;;3.85;;
8652;SDS011;4364;52.426;9.424;2023-08-20T13:35:28;5.38;;;3.85;;
8652;SDS011;4364;52.426;9.424;2023-08-20T13:37:54;5.55;;;4.07;;
8652;SDS011;4364;52.426;9.424;2023-08-20T13:40:21;4.57;;;3.75;;
8652;SDS011;4364;52.426;9.424;2023-08-20T13:42:47;10.90;;;8.73;;
8652;SDS011;4364;52.426;9.424;2023-08-20T13:45:14;5.93;;;4.10;;
8652;SDS011;4364;52.426;9.424;2023-08-20T13:47:41;4.85;;;3.80;;
8652;SDS011;4364;52.426;9.424;2023-08-20T13:50:13;4.53;;;3.83;;
8652;SDS011;4364;52.426;9.424;2023-08-20T13:52:40;5.65;;;4.30;;
8652;SDS011;4364;52.426;9.424;2023-08-20T13:55:07;5.78;;;4.40;;
8652;SDS011;4364;52.426;9.424;2023-08-20T13:57:34;5.65;;;4.18;;
8652;SDS011;4364;52.426;9.424;2023-08-20T14:00:00;5.07;;;4.05;;
8652;SDS011;4364;52.426;9.424;2023-08-20T14:02:32;5.00;;;4.00;;
8652;SDS011;4364;52.426;9.424;2023-08-20T14:04:59;5.30;;;4.03;;
8652;SDS011;4364;52.426;9.424;2023-08-20T14:07:26;5.80;;;4.10;;
8652;SDS011;4364;52.426;9.424;2023-08-20T14:09:52;5.65;;;3.88;;
8652;SDS011;4364;52.426;9.424;2023-08-20T14:12:19;5.00;;;4.25;;
8652;SDS011;4364;52.426;9.424;2023-08-20T14:14:46;5.13;;;4.30;;
8652;SDS011;4364;52.426;9.424;2023-08-20T14:17:12;8.52;;;6.00;;
8652;SDS011;4364;52.426;9.424;2023-08-20T14:19:39;5.63;;;4.20;;
8652;SDS011;4364;52.426;9.424;2023-08-20T14:22:06;4.93;;;3.75;;
8652;SDS011;4364;52.426;9.424;2023-08-20T14:24:33;4.20;;;3.80;;
8652;SDS011;4364;52.426;9.424;2023-08-20T14:26:59;7.50;;;4.20;;
8652;SDS011;4364;52.426;9.424;2023-08-20T14:29:26;4.68;;;3.83;;
8652;SDS011;4364;52.426;9.424;2023-08-20T14:31:52;4.75;;;4.03;;
8652;SDS011;4364;52.426;9.424;2023-08-20T14:34:19;4.90;;;3.92;;
8652;SDS011;4364;52.426;9.424;2023-08-20T14:36:45;4.30;;;3.90;;
8652;SDS011;4364;52.426;9.424;2023-08-20T14:39:12;5.40;;;4.15;;
8652;SDS011;4364;52.426;9.424;2023-08-20T14:41:39;5.05;;;4.63;;
8652;SDS011;4364;52.426;9.424;2023-08-20T14:44:05;6.88;;;4.30;;
8652;SDS011;4364;52.426;9.424;2023-08-20T14:46:32;4.28;;;3.88;;
8652;SDS011;4364;52.426;9.424;2023-08-20T14:48:58;4.55;;;3.95;;
8652;SDS011;4364;52.426;9.424;2023-08-20T14:51:25;4.53;;;3.90;;
8652;SDS011;4364;52.426;9.424;2023-08-20T14:53:51;5.50;;;4.28;;
8652;SDS011;4364;52.426;9.424;2023-08-20T14:56:18;5.28;;;4.55;;
8652;SDS011;4364;52.426;9.424;2023-08-20T14:58:44;5.25;;;4.28;;
8652;SDS011;4364;52.426;9.424;2023-08-20T15:01:12;4.75;;;4.25;;
8652;SDS011;4364;52.426;9.424;2023-08-20T15:03:38;5.10;;;3.97;;
8652;SDS011;4364;52.426;9.424;2023-08-20T15:06:05;5.43;;;4.00;;
8652;SDS011;4364;52.426;9.424;2023-08-20T15:08:31;4.43;;;4.03;;
8652;SDS011;4364;52.426;9.424;2023-08-20T15:10:58;4.32;;;3.60;;
8652;SDS011;4364;52.426;9.424;2023-08-20T15:13:27;4.45;;;4.05;;
8652;SDS011;4364;52.426;9.424;2023-08-20T15:15:53;4.47;;;4.07;;
8652;SDS011;4364;52.426;9.424;2023-08-20T15:18:21;4.40;;;4.00;;
8652;SDS011;4364;52.426;9.424;2023-08-20T15:20:55;7.38;;;4.60;;
8652;SDS011;4364;52.426;9.424;2023-08-20T15:23:23;4.80;;;4.40;;
8652;SDS011;4364;52.426;9.424;2023-08-20T15:25:54;4.95;;;4.28;;
8652;SDS011;4364;52.426;9.424;2023-08-20T15:28:22;4.70;;;4.20;;
8652;SDS011;4364;52.426;9.424;2023-08-20T15:30:51;4.95;;;4.53;;
8652;SDS011;4364;52.426;9.424;2023-08-20T15:33:19;5.13;;;4.63;;